| time (UTC) | temp C | wind direction | speed KPH | gust KPH | rain 1hr cm | rain 24hr cm | rain mn cm | humidity % | barometer mb |
| 20260504140513 | 29 | 126 | 11.3 | 27.4 | 0.00 | 0.00 | 0.00 | 68 | 1012.6 |
| 20260504140112 | 28 | 130 | 16.1 | 29.0 | 0.00 | 0.00 | 0.00 | 68 | 1012.8 |
| 20260504130222 | 29 | 125 | 12.9 | 22.5 | 0.00 | 0.00 | 0.00 | 70 | 1012.3 |
| 20260504120156 | 30 | 108 | 11.3 | 20.9 | 0.00 | 0.00 | 0.00 | 69 | 1012.1 |
| 20260504100106 | 31 | 116 | 12.9 | 24.1 | 0.00 | 0.00 | 0.00 | 63 | 1010.8 |
| 20260504090124 | 32 | 113 | 12.9 | 25.7 | 0.00 | 0.00 | 0.00 | 63 | 1010.2 |
| 20260504081603 | 33 | 121 | 14.5 | 30.6 | 0.00 | 0.00 | 0.00 | 58 | 1010.4 |
| 20260504081545 | 33 | 114 | 12.9 | 29.0 | 0.00 | 0.00 | 0.00 | 58 | 1010.4 |
| 20260504080515 | 33 | 98 | 14.5 | 30.6 | 0.00 | 0.00 | 0.00 | 57 | 1010.4 |
| 20260504060105 | 33 | 106 | 19.3 | 33.8 | 0.00 | 0.00 | 0.00 | 54 | 1011.5 |
| 20260504050004 | 33 | 154 | 17.7 | 29.0 | 0.00 | 0.00 | 0.00 | 56 | 1012.4 |
| 20260504044606 | 33 | 154 | 16.1 | 30.6 | 0.00 | 0.00 | 0.00 | 56 | 1012.7 |
| 20260504043709 | 33 | 123 | 12.9 | 27.4 | 0.00 | 0.00 | 0.00 | 56 | 1012.8 |
| 20260504043004 | 33 | 96 | 14.5 | 25.7 | 0.00 | 0.00 | 0.00 | 55 | 1012.9 |
| 20260504042637 | 33 | 113 | 12.9 | 24.1 | 0.00 | 0.00 | 0.00 | 56 | 1012.8 |
| 20260504041642 | 33 | 122 | 11.3 | 24.1 | 0.00 | 0.00 | 0.00 | 55 | 1013.3 |
| 20260504041503 | 33 | 119 | 14.5 | 25.7 | 0.00 | 0.00 | 0.00 | 56 | 1013.2 |
| 20260504040650 | 33 | 117 | 9.7 | 24.1 | 0.00 | 0.00 | 0.00 | 58 | 1013.3 |
| 20260504040107 | 32 | 118 | 12.9 | 25.7 | 0.00 | 0.00 | 0.00 | 58 | 1013.6 |
| 20260504035629 | 32 | 124 | 9.7 | 19.3 | 0.00 | 0.00 | 0.00 | 60 | 1013.6 |
| 20260504034623 | 32 | 127 | 11.3 | 19.3 | 0.00 | 0.00 | 0.00 | 62 | 1013.7 |
| 20260504034503 | 32 | 122 | 12.9 | 20.9 | 0.00 | 0.00 | 0.00 | 62 | 1013.9 |
| 20260504033116 | 32 | 106 | 12.9 | 19.3 | 0.00 | 0.00 | 0.00 | 60 | 1013.9 |
| 20260504032443 | 33 | 106 | 8.0 | 20.9 | 0.00 | 0.00 | 0.00 | 60 | 1013.9 |
| 20260504031603 | 32 | 109 | 9.7 | 22.5 | 0.00 | 0.00 | 0.00 | 60 | 1013.9 |
| 20260504031430 | 33 | 109 | 8.0 | 20.9 | 0.00 | 0.00 | 0.00 | 61 | 1013.9 |
| 20260504030430 | 32 | 122 | 9.7 | 20.9 | 0.00 | 0.00 | 0.00 | 61 | 1014.1 |
| 20260504030003 | 32 | 131 | 9.7 | 22.5 | 0.00 | 0.00 | 0.00 | 61 | 1014.2 |
| 20260504025417 | 32 | 105 | 11.3 | 20.9 | 0.00 | 0.00 | 0.00 | 63 | 1014.2 |
| 20260504024607 | 32 | 113 | 14.5 | 22.5 | 0.00 | 0.00 | 0.00 | 63 | 1014.4 |
| 20260504023226 | 32 | 112 | 11.3 | 20.9 | 0.00 | 0.00 | 0.00 | 63 | 1014.4 |
| 20260504022218 | 32 | 114 | 11.3 | 20.9 | 0.00 | 0.00 | 0.00 | 63 | 1014.4 |
| 20260504021504 | 31 | 115 | 12.9 | 22.5 | 0.00 | 0.00 | 0.00 | 64 | 1014.5 |
| 20260504021227 | 31 | 114 | 11.3 | 20.9 | 0.00 | 0.00 | 0.00 | 65 | 1014.5 |
| 20260504020226 | 31 | 126 | 9.7 | 19.3 | 0.00 | 0.00 | 0.00 | 66 | 1014.6 |
| 20260504020104 | 31 | 123 | 11.3 | 20.9 | 0.00 | 0.00 | 0.00 | 66 | 1014.7 |
| 20260504015221 | 31 | 122 | 11.3 | 20.9 | 0.00 | 0.00 | 0.00 | 65 | 1014.8 |
| 20260504014505 | 31 | 115 | 8.0 | 22.5 | 0.00 | 0.00 | 0.00 | 66 | 1014.8 |
| 20260504014147 | 31 | 116 | 9.7 | 20.9 | 0.00 | 0.00 | 0.00 | 64 | 1014.8 |
| 20260504013134 | 31 | 115 | 11.3 | 19.3 | 0.00 | 0.00 | 0.00 | 66 | 1014.7 |
| 20260504013106 | 30 | 114 | 9.7 | 20.9 | 0.00 | 0.00 | 0.00 | 66 | 1014.7 |
| 20260504011602 | 30 | 115 | 14.5 | 24.1 | 0.00 | 0.00 | 0.00 | 67 | 1014.8 |
| 20260504011055 | 30 | 92 | 8.0 | 22.5 | 0.00 | 0.00 | 0.00 | 69 | 1014.7 |
| 20260504010114 | 30 | 111 | 8.0 | 19.3 | 0.00 | 0.00 | 0.00 | 71 | 1014.6 |
| 20260504010112 | 30 | 112 | 11.3 | 20.9 | 0.00 | 0.00 | 0.00 | 71 | 1014.6 |
| 20260504005052 | 28 | 111 | 4.8 | 12.9 | 0.00 | 0.00 | 0.00 | 77 | 1014.7 |
| 20260504004505 | 27 | 113 | 6.4 | 12.9 | 0.00 | 0.00 | 0.00 | 80 | 1014.8 |
| 20260504004058 | 27 | 114 | 6.4 | 14.5 | 0.00 | 0.00 | 0.00 | 80 | 1014.8 |
| 20260504003121 | 27 | 125 | 9.7 | 17.7 | 0.00 | 0.00 | 0.00 | 81 | 1014.7 |
| 20260504003106 | 27 | 125 | 11.3 | 16.1 | 0.00 | 0.00 | 0.00 | 81 | 1014.9 |
| 20260504002140 | 27 | 125 | 9.7 | 19.3 | 0.00 | 0.00 | 0.00 | 80 | 1014.6 |
| 20260504001615 | 27 | 121 | 11.3 | 20.9 | 0.00 | 0.00 | 0.00 | 78 | 1014.6 |
| 20260504001131 | 28 | 116 | 11.3 | 20.9 | 0.00 | 0.00 | 0.00 | 77 | 1014.5 |
| 20260504000107 | 28 | 107 | 11.3 | 22.5 | 0.00 | 0.00 | 0.00 | 74 | 1014.2 |
| 20260504000002 | 28 | 103 | 12.9 | 22.5 | 0.00 | 0.00 | 0.00 | 74 | 1014.3 |
| 20260503235102 | 28 | 114 | 9.7 | 22.5 | 0.00 | 0.00 | 0.00 | 73 | 1014.0 |
| 20260503234603 | 28 | 121 | 11.3 | 24.1 | 0.00 | 0.00 | 0.00 | 74 | 1014.0 |
| 20260503234031 | 28 | 105 | 4.8 | 16.1 | 0.00 | 0.00 | 0.00 | 73 | 1013.9 |
| 20260503233002 | 28 | 105 | 8.0 | 16.1 | 0.00 | 0.00 | 0.00 | 72 | 1013.9 |
| 20260503231848 | 28 | 102 | 4.8 | 12.9 | 0.00 | 0.00 | 0.00 | 70 | 1013.6 |
| 20260503231502 | 28 | 103 | 8.0 | 16.1 | 0.00 | 0.00 | 0.00 | 70 | 1013.6 |
| 20260503230852 | 28 | 98 | 1.6 | 9.7 | 0.00 | 0.00 | 0.00 | 72 | 1013.4 |
| 20260503224504 | 27 | 98 | 3.2 | 6.4 | 0.00 | 0.00 | 0.00 | 73 | 1013.4 |
| 20260503223646 | 27 | 98 | 1.6 | 6.4 | 0.00 | 0.00 | 0.00 | 72 | 1013.2 |
| 20260503223102 | 27 | 98 | 4.8 | 8.0 | 0.00 | 0.00 | 0.00 | 72 | 1013.1 |
| 20260503221603 | 27 | 98 | 0.0 | 6.4 | 0.00 | 0.00 | 0.00 | 73 | 1013.0 |
| 20260503221505 | 27 | 98 | 0.0 | 6.4 | 0.00 | 0.00 | 0.00 | 73 | 1013.0 |
| 20260503220528 | 27 | 98 | 0.0 | 6.4 | 0.00 | 0.00 | 0.00 | 73 | 1012.9 |
| 20260503220006 | 27 | 98 | 1.6 | 8.0 | 0.00 | 0.00 | 0.00 | 74 | 1013.0 |
| 20260503215549 | 27 | 98 | 1.6 | 6.4 | 0.00 | 0.00 | 0.00 | 74 | 1013.0 |
| 20260503214602 | 27 | 98 | 0.0 | 8.0 | 0.00 | 0.00 | 0.00 | 74 | 1012.9 |
| 20260503214556 | 27 | 98 | 0.0 | 8.0 | 0.00 | 0.00 | 0.00 | 74 | 1012.9 |
| 20260503213601 | 27 | 98 | 1.6 | 8.0 | 0.00 | 0.00 | 0.00 | 74 | 1012.9 |
| 20260503213008 | 27 | 98 | 0.0 | 6.4 | 0.00 | 0.00 | 0.00 | 74 | 1013.0 |
| 20260503211507 | 27 | 98 | 3.2 | 6.4 | 0.00 | 0.00 | 0.00 | 74 | 1013.1 |
| 20260503211439 | 27 | 98 | 0.0 | 4.8 | 0.00 | 0.00 | 0.00 | 74 | 1013.0 |
| 20260503210455 | 27 | 98 | 0.0 | 0.0 | 0.00 | 0.00 | 0.00 | 73 | 1013.1 |
| 20260503204504 | 27 | 98 | 1.6 | 8.0 | 0.00 | 0.00 | 0.00 | 73 | 1012.8 |
| 20260503204255 | 27 | 98 | 1.6 | 6.4 | 0.00 | 0.00 | 0.00 | 73 | 1012.7 |
| 20260503203232 | 27 | 98 | 0.0 | 6.4 | 0.00 | 0.00 | 0.00 | 74 | 1012.6 |
| 20260503203102 | 27 | 98 | 0.0 | 8.0 | 0.00 | 0.00 | 0.00 | 74 | 1012.7 |
| 20260503201603 | 27 | 98 | 3.2 | 9.7 | 0.00 | 0.00 | 0.00 | 72 | 1012.6 |
| 20260503201111 | 27 | 98 | 1.6 | 9.7 | 0.00 | 0.00 | 0.00 | 72 | 1012.5 |
| 20260503200108 | 27 | 98 | 3.2 | 9.7 | 0.00 | 0.00 | 0.00 | 72 | 1012.5 |
| 20260503200002 | 27 | 98 | 1.6 | 11.3 | 0.00 | 0.00 | 0.00 | 72 | 1012.6 |
| 20260503195116 | 27 | 98 | 3.2 | 12.9 | 0.00 | 0.00 | 0.00 | 72 | 1012.4 |
| 20260503194604 | 27 | 98 | 3.2 | 8.0 | 0.00 | 0.00 | 0.00 | 72 | 1012.5 |
| 20260503193010 | 27 | 98 | 6.4 | 11.3 | 0.00 | 0.00 | 0.00 | 73 | 1012.2 |
| 20260503193003 | 27 | 98 | 6.4 | 12.9 | 0.00 | 0.00 | 0.00 | 73 | 1012.3 |
| 20260503192008 | 28 | 96 | 4.8 | 16.1 | 0.00 | 0.00 | 0.00 | 73 | 1012.1 |
| 20260503191502 | 27 | 96 | 6.4 | 12.9 | 0.00 | 0.00 | 0.00 | 73 | 1012.1 |
| 20260503184642 | 28 | 104 | 8.0 | 17.7 | 0.00 | 0.00 | 0.00 | 73 | 1012.1 |
| 20260503184503 | 27 | 106 | 4.8 | 17.7 | 0.00 | 0.00 | 0.00 | 73 | 1012.2 |
| 20260503183632 | 28 | 110 | 11.3 | 17.7 | 0.00 | 0.00 | 0.00 | 73 | 1012.1 |
| 20260503183114 | 27 | 109 | 11.3 | 19.3 | 0.00 | 0.00 | 0.00 | 73 | 1012.1 |
| 20260503182621 | 28 | 107 | 11.3 | 19.3 | 0.00 | 0.00 | 0.00 | 73 | 1012.0 |
| 20260503181638 | 28 | 109 | 11.3 | 19.3 | 0.00 | 0.00 | 0.00 | 73 | 1012.0 |
| 20260503181624 | 27 | 110 | 12.9 | 20.9 | 0.00 | 0.00 | 0.00 | 73 | 1012.1 |
| 20260503180633 | 28 | 107 | 11.3 | 19.3 | 0.00 | 0.00 | 0.00 | 73 | 1012.1 |
| 20260503175622 | 28 | 111 | 9.7 | 22.5 | 0.00 | 0.00 | 0.00 | 73 | 1012.1 |
| 20260503174623 | 28 | 104 | 11.3 | 22.5 | 0.00 | 0.00 | 0.00 | 73 | 1012.1 |
| 20260503174602 | 28 | 103 | 11.3 | 24.1 | 0.00 | 0.00 | 0.00 | 73 | 1012.2 |
| 20260503173603 | 28 | 101 | 9.7 | 20.9 | 0.00 | 0.00 | 0.00 | 74 | 1012.1 |
| 20260503173009 | 27 | 100 | 11.3 | 20.9 | 0.00 | 0.00 | 0.00 | 74 | 1012.2 |
| 20260503172554 | 28 | 120 | 11.3 | 19.3 | 0.00 | 0.00 | 0.00 | 73 | 1012.1 |
| 20260503171529 | 28 | 104 | 12.9 | 24.1 | 0.00 | 0.00 | 0.00 | 74 | 1012.2 |
| 20260503171503 | 27 | 103 | 11.3 | 25.7 | 0.00 | 0.00 | 0.00 | 74 | 1012.3 |
| 20260503170455 | 28 | 115 | 16.1 | 27.4 | 0.00 | 0.00 | 0.00 | 74 | 1012.2 |
| 20260503170105 | 27 | 119 | 17.7 | 29.0 | 0.00 | 0.00 | 0.00 | 74 | 1012.2 |